AirNav   Phillips 66 Aviation Fuel
 
 899 users online  

1AL4 Elsanor Airport
Robertsdale, Alabama, USA

GOING TO ROBERTSDALE?


FAA INFORMATION EFFECTIVE 01 FEBRUARY 2018

Location

FAA Identifier: 1AL4
Lat/Long: 30-32-41.0000N / 087-33-34.0000W
30-32.683333N / 087-33.566667W
30.5447222 / -87.5594444
(estimated)
Elevation: 180 ft. / 55 m (estimated)
Variation: 01E (1990)
From city: 11 miles E of ROBERTSDALE, AL
Time zone: UTC -6 (UTC -5 during Daylight Saving Time)
Zip code: 36567

Airport Operations

Airport use: Private use. Permission required prior to landing
Activation date: 03/1993
Control tower: no
ARTCC: JACKSONVILLE CENTER
FSS: ANNISTON FLIGHT SERVICE STATION
Attendance: UNATNDD
Segmented circle: no

Airport Communications

WX AWOS-3 at JKA (16 nm S): 134.525 (251-968-7581)
WX AWOS-3 at CQF (17 nm W): 118.425 (251-928-3242)
WX ASOS at PNS (20 nm E): PHONE 850-436-4799

Nearby radio navigation aids

VOR radial/distance  VOR name  Freq  Var
NUNr290/(12.3)SAUFLEY VOR108.8001E
BFMr095/25.9BROOKLEY VORTAC112.8004E

 
NDB name  Hdg/Dist  Freq  Var  ID
PICKENS290/20.732602WPKZ .--. -.- --..

Airport Services

Runway Information

Runway 9/27

Dimensions: 2400 x 100 ft. / 732 x 30 m
Surface: turf
RUNWAY 9  RUNWAY 27
Traffic pattern: leftleft

Airport Ownership and Management from official FAA records

Ownership: Privately-owned
Owner: RICHARD E. GORDON JR
21810 KOLER ROAD
ROBERTSDALE, AL 21756
Phone (805) 572-7510
Manager: RICHARD E. GORDON JR.
21810 KOLER ROAD
ROBERTSDALE, AL 21756
Phone (805) 572-7510

Airport Operational Statistics

Aircraft based on the field: 1
Single engine airplanes: 1
    

Additional Remarks

GLIDER ACTIVITY ON AND INVOF ARPT.

Instrument Procedures

There are no published instrument procedures at 1AL4.

Some nearby airports with instrument procedures:

5R4 - Foley Municipal Airport (10 nm SW)
KJKA - Jack Edwards Airport (16 nm S)
KNPA - Pensacola Naval Air Station/Forrest Sherman Field (17 nm SE)
KCQF - H L Sonny Callahan Airport (17 nm W)
KPNS - Pensacola International Airport (20 nm E)
 
Loc | Ops | Rwys | IFR | FBO | Links
Com | Nav | Svcs | Stats | Notes

Continental Motors
AirBoss

 
Area around 1AL4 (Elsanor Airport)
 
Road maps at: MapQuest Bing Google
 
Aerial photo
No photo
 
Sectional chart

 
Airport distance calculator
Flying to Elsanor Airport? Find the distance to fly.

From to 1AL4

Sunrise and sunset
Times for 25-Feb-2018
 Local
(UTC-6)
 Zulu
(UTC)
Morning civil twilight05:5811:58
Sunrise06:2212:22
Sunset17:4523:45
Evening civil twilight18:0900:09

Current date and time
Zulu (UTC)  25-Feb-2018 14:31:00
Local (UTC-6)  25-Feb-2018 08:31:00
 
METAR
KJKA 
16nm S 
251415Z AUTO 19011KT 10SM CLR 23/23 A3011 RMK AO2 T02320228
KNPA 
17nm SE 
242330Z 16009KT 10SM FEW025 FEW060 23/20 A3005 RMK LAST T02280200
KCQF 
17nm W 
251415Z AUTO 00000KT 10SM CLR 23/22 A3011 RMK AO2
KPNS 
20nm E 
251353Z 18010KT 10SM CLR 24/21 A3010 RMK AO2 SLP193 T02390211
KBFM 
27nm W 
251404Z VRB03KT 10SM SCT023 BKN095 23/23 A3011 RMK AO2 T02330228
KNDZ 
29nm E 
251407Z AUTO 19007KT 10SM FEW009 23/22 A3010 RMK AO2 T02330217 $
2R4 
30nm E 
SuperAWOS
251355Z AUTO 20009G13KT 23/22 A3009
KNSE 
30nm E 
251356Z AUTO 18010KT 9SM CLR 23/22 A3010 RMK AO2 SLP179 T02280217 $
TAF
KNPA 
17nm SE 
2509/2607 18008KT 6000 BR VCSH SCT005 BKN010 BKN050 QNH2999INS BECMG 2515/2517 21008KT 6000 BR VCTS BKN015CB BKN035 OVC100 QNH3002INS TEMPO 2519/2601 VRB20G30KT 3200 -TSRA BR BKN010CB OVC025 BECMG 2601/2603 21004KT 6000 BR VCSH BKN008 BKN050 QNH3004INS T21/2512Z T25/2518Z AMD 0953 FN00182
KPNS 
20nm E 
251122Z 2512/2612 20007KT P6SM VCSH SCT022 BKN026 BKN030 FM251500 20010KT 5SM BR VCSH BKN025 FM252100 19008KT P6SM SCT250 PROB30 2521/2524 5SM SHRA BKN015 FM260300 19004KT 4SM -RA BR OVC015
NOTAMs
Click for the latest NOTAMs
NOTAMs are issued by the DoD/FAA and will open in a separate window not controlled by AirNav.

 

 
 

Would you like to see your business listed on this page?

 If your business provides an interesting product or service to pilots, flight crews, aircraft, or users of the Elsanor Airport, you should consider listing it here.  To start the listing process, click on the button below
 
Add a business
 

Other Pages about Elsanor Airport

Update a link
 
Copyright © AirNav, LLC. All rights reserved. Privacy Policy  Contact